Time;durP1;ratioP1;P1;durP2;ratioP2;P2;SDS_P1;SDS_P2;PMS_P1;PMS_P2;Temp;Humidity;BMP_temperature;BMP_pressure;BME280_temperature;BME280_humidity;BME280_pressure;Samples;Min_cycle;Max_cycle;Signal;HPM_P1;HPM_P2
2023/07/19 00:00:42;;;;;;;;;;;;;;;16.87;67.59;99720.31;5092516;28;5610;-77
2023/07/19 00:03:09;;;;;;;;;;;;;;;16.87;67.78;99715.66;5088097;27;4792;-76
2023/07/19 00:05:35;;;;;;;;;;;;;;;16.85;67.54;99717.03;5089867;27;4849;-76
2023/07/19 00:08:04;;;;;;;;;;;;;;;16.84;67.57;99712.72;5094889;27;5128;-75
2023/07/19 00:10:30;;;;;;;;;;;;;;;16.85;67.66;99711.59;5091022;28;5341;-76
2023/07/19 00:13:22;;;;;;;;;;;;;;;16.84;67.59;99710.78;5092327;28;5238;-78
2023/07/19 00:16:13;;;;;;;;;;;;;;;16.83;67.42;99717.34;5091341;28;5618;-76
2023/07/19 00:19:04;;;;;;;;;;;;;;;16.84;67.40;99712.72;5087851;28;5609;-76
2023/07/19 00:21:56;;;;;;;;;;;;;;;16.82;67.34;99712.16;5088999;28;5794;-76
2023/07/19 00:24:43;;;;;;;;;;;;;;;16.82;67.42;99712.16;5093084;28;5027;-75
2023/07/19 00:27:35;;;;;;;;;;;;;;;16.80;67.54;99712.47;5085101;28;5015;-77
2023/07/19 00:30:30;;;;;;;;;;;;;;;16.79;67.51;99718.97;5087840;28;5304;-76
2023/07/19 00:33:22;;;;;;;;;;;;;;;16.78;67.48;99712.72;5085373;28;6326;-77
2023/07/19 00:35:49;;;;;;;;;;;;;;;16.78;67.50;99711.91;5072788;28;5077;-77
2023/07/19 00:38:15;;;;;;;;;;;;;;;16.78;67.48;99710.00;5087907;28;5074;-76
2023/07/19 00:40:42;;;;;;;;;;;;;;;16.77;67.53;99710.31;5079011;28;6192;-75
2023/07/19 00:43:08;;;;;;;;;;;;;;;16.77;67.45;99715.75;5089562;28;5229;-76
2023/07/19 00:45:35;;;;;;;;;;;;;;;16.76;67.48;99714.91;5088720;28;5036;-77
2023/07/19 00:48:01;;;;;;;;;;;;;;;16.76;67.45;99714.09;5092434;28;5520;-76
2023/07/19 00:50:30;;;;;;;;;;;;;;;16.75;67.35;99717.88;5088044;28;5174;-76
2023/07/19 00:52:56;;;;;;;;;;;;;;;16.73;67.38;99712.72;5070911;28;6184;-75
2023/07/19 00:55:23;;;;;;;;;;;;;;;16.74;67.35;99710.84;5088282;28;4936;-75
2023/07/19 00:57:49;;;;;;;;;;;;;;;16.73;67.40;99709.19;5088772;28;4952;-77
2023/07/19 01:00:16;;;;;;;;;;;;;;;16.73;67.42;99711.91;5088293;28;5120;-76
2023/07/19 01:02:42;;;;;;;;;;;;;;;16.72;67.32;99718.47;5093061;28;5274;-75
2023/07/19 01:05:09;;;;;;;;;;;;;;;16.72;67.39;99719.25;5099532;28;6231;-76
2023/07/19 01:07:35;;;;;;;;;;;;;;;16.70;67.37;99716.00;5082831;28;5061;-78
2023/07/19 01:10:02;;;;;;;;;;;;;;;16.69;67.47;99711.66;5084608;28;5692;-77
2023/07/19 01:12:28;;;;;;;;;;;;;;;16.69;67.34;99719.00;5103383;27;5079;-78
2023/07/19 01:14:55;;;;;;;;;;;;;;;16.68;67.30;99711.97;5101246;28;5890;-76
2023/07/19 01:17:21;;;;;;;;;;;;;;;16.67;67.50;99713.84;5086237;28;6140;-74
2023/07/19 01:19:48;;;;;;;;;;;;;;;16.66;67.42;99712.22;5104042;27;5321;-76
2023/07/19 01:22:15;;;;;;;;;;;;;;;16.66;67.45;99711.41;5104845;27;5215;-76
2023/07/19 01:24:41;;;;;;;;;;;;;;;16.64;67.42;99713.59;5103705;27;5908;-75
2023/07/19 01:27:08;;;;;;;;;;;;;;;16.64;67.48;99716.31;5104080;27;5023;-77
2023/07/19 01:29:34;;;;;;;;;;;;;;;16.63;67.39;99712.78;5101826;28;5396;-75
2023/07/19 01:32:01;;;;;;;;;;;;;;;16.63;67.50;99707.34;5103524;28;5155;-77
2023/07/19 01:34:28;;;;;;;;;;;;;;;16.62;67.41;99713.06;5104710;27;5670;-77
2023/07/19 01:36:54;;;;;;;;;;;;;;;16.61;67.44;99714.16;5083049;28;6256;-76
2023/07/19 01:39:21;;;;;;;;;;;;;;;16.61;67.43;99708.72;5104040;28;5081;-77
2023/07/19 01:41:47;;;;;;;;;;;;;;;16.58;67.38;99705.47;5102680;27;5212;-76
2023/07/19 01:44:15;;;;;;;;;;;;;;;16.58;67.42;99704.66;5103743;28;5571;-75
2023/07/19 01:46:41;;;;;;;;;;;;;;;16.64;67.23;99717.13;5101904;28;5274;-75
2023/07/19 01:49:09;;;;;;;;;;;;;;;16.66;67.00;99714.94;5101428;28;5603;-75
2023/07/19 01:51:35;;;;;;;;;;;;;;;16.66;67.17;99719.56;5103898;28;5059;-75
2023/07/19 01:54:02;;;;;;;;;;;;;;;16.61;67.14;99720.41;5102604;28;5179;-76
2023/07/19 01:56:28;;;;;;;;;;;;;;;16.74;66.62;99716.28;5104805;27;6199;-76
2023/07/19 01:58:55;;;;;;;;;;;;;;;16.64;66.94;99725.28;5094087;28;5220;-77
2023/07/19 02:01:21;;;;;;;;;;;;;;;16.66;66.91;99719.56;5089465;27;4968;-74
2023/07/19 02:03:48;;;;;;;;;;;;;;;16.65;66.91;99712.50;5091801;27;5119;-74
2023/07/19 02:06:14;;;;;;;;;;;;;;;16.95;65.80;99711.56;5072802;28;5125;-75
2023/07/19 02:08:41;;;;;;;;;;;;;;;17.18;65.15;99710.84;5095109;28;5673;-77
2023/07/19 02:11:08;;;;;;;;;;;;;;;16.68;65.01;99644.00;5087684;27;4978;-74
2023/07/19 02:13:34;;;;;;;;;;;;;;;17.20;64.83;99714.06;5092601;27;4959;-77
2023/07/19 02:16:01;;;;;;;;;;;;;;;17.29;64.41;99702.59;5092340;27;4877;-77
2023/07/19 02:18:27;;;;;;;;;;;;;;;17.41;63.91;99711.19;5066124;28;5115;-78
2023/07/19 02:20:55;;;;;;;;;;;;;;;17.42;63.86;99707.38;5077161;27;5167;-77
2023/07/19 02:23:22;;;;;;;;;;;;;;;17.18;64.67;99719.00;5092581;27;6006;-76
2023/07/19 02:25:48;;;;;;;;;;;;;;;17.36;64.06;99717.50;5097670;27;6144;-76
2023/07/19 02:28:15;;;;;;;;;;;;;;;17.53;63.52;99717.09;5107223;27;5028;-75
2023/07/19 02:30:41;;;;;;;;;;;;;;;17.65;62.77;99714.81;5086866;27;5273;-77
2023/07/19 02:33:09;;;;;;;;;;;;;;;17.67;62.50;99712.59;5092237;27;5188;-77
2023/07/19 02:35:35;;;;;;;;;;;;;;;17.54;63.14;99715.19;5094469;27;5564;-76
2023/07/19 02:38:02;;;;;;;;;;;;;;;17.39;63.67;99721.56;5087965;27;5487;-75
2023/07/19 02:40:28;;;;;;;;;;;;;;;17.60;62.81;99717.56;5093595;27;5035;-76
2023/07/19 02:42:55;;;;;;;;;;;;;;;17.47;63.22;99724.50;5089683;27;5071;-75
2023/07/19 02:45:22;;;;;;;;;;;;;;;17.43;63.33;99723.41;5092735;27;5169;-75
2023/07/19 02:47:48;;;;;;;;;;;;;;;17.33;63.58;99717.25;5087765;27;5039;-78
2023/07/19 02:50:15;;;;;;;;;;;;;;;17.43;63.12;99725.34;5093951;27;5688;-75
2023/07/19 02:52:41;;;;;;;;;;;;;;;17.48;63.00;99717.94;5071249;27;5712;-74
2023/07/19 02:55:08;;;;;;;;;;;;;;;17.35;63.55;99721.31;5090762;27;5098;-78
2023/07/19 02:57:35;;;;;;;;;;;;;;;17.26;63.60;99725.72;5098193;28;5576;-77
2023/07/19 03:00:01;;;;;;;;;;;;;;;17.21;63.76;99715.72;5069568;27;5319;-77
2023/07/19 03:02:28;;;;;;;;;;;;;;;17.35;63.46;99717.78;5089917;27;5939;-80
2023/07/19 03:04:55;;;;;;;;;;;;;;;17.36;63.39;99716.69;5074311;28;5347;-76
2023/07/19 03:07:23;;;;;;;;;;;;;;;17.31;63.16;99712.09;5098807;27;5843;-78
2023/07/19 03:09:50;;;;;;;;;;;;;;;17.17;63.68;99711.91;5099988;28;5770;-79
2023/07/19 03:12:16;;;;;;;;;;;;;;;17.39;63.22;99708.78;5101580;28;5071;-78
2023/07/19 03:14:43;;;;;;;;;;;;;;;17.25;63.52;99719.47;5101877;28;5234;-77
2023/07/19 03:17:10;;;;;;;;;;;;;;;17.15;64.13;99710.59;5099770;28;5073;-77
2023/07/19 03:19:36;;;;;;;;;;;;;;;17.22;63.63;99716.53;5088785;28;5126;-76
2023/07/19 03:22:03;;;;;;;;;;;;;;;17.25;63.60;99710.50;5098932;28;5970;-79
2023/07/19 03:24:30;;;;;;;;;;;;;;;17.16;63.93;99706.78;5102674;28;4876;-75
2023/07/19 03:26:56;;;;;;;;;;;;;;;17.10;63.97;99713.34;5099978;28;5639;-76
2023/07/19 03:29:22;;;;;;;;;;;;;;;17.05;64.21;99708.75;5084409;28;5864;-76
2023/07/19 03:31:49;;;;;;;;;;;;;;;17.01;64.02;99708.50;5100139;27;5234;-77
2023/07/19 03:34:16;;;;;;;;;;;;;;;17.15;63.69;99711.41;5100964;28;5197;-79
2023/07/19 03:36:42;;;;;;;;;;;;;;;17.20;63.38;99702.38;5100533;28;5078;-79
2023/07/19 03:39:09;;;;;;;;;;;;;;;16.92;64.13;99710.22;5083376;28;5185;-76
2023/07/19 03:41:36;;;;;;;;;;;;;;;16.86;64.39;99714.06;5099731;27;5958;-76
2023/07/19 03:44:02;;;;;;;;;;;;;;;17.02;64.00;99701.16;5098326;28;6035;-76
2023/07/19 03:46:29;;;;;;;;;;;;;;;16.80;64.71;99707.84;5089921;27;5443;-76
2023/07/19 03:48:55;;;;;;;;;;;;;;;16.71;64.92;99709.50;5098076;27;5673;-79
2023/07/19 03:51:22;;;;;;;;;;;;;;;16.74;64.72;99708.13;5099734;28;5017;-77
2023/07/19 03:53:49;;;;;;;;;;;;;;;16.80;64.60;99704.31;5098748;28;5970;-77
2023/07/19 03:56:15;;;;;;;;;;;;;;;16.85;64.46;99704.25;5101096;27;4924;-78
2023/07/19 03:58:45;;;;;;;;;;;;;;;16.87;64.25;99706.69;5091927;27;6340;-77
2023/07/19 04:01:11;;;;;;;;;;;;;;;16.68;64.84;99703.81;5063629;28;5103;-75
2023/07/19 04:03:38;;;;;;;;;;;;;;;16.80;64.36;99712.47;5088773;27;4814;-74
2023/07/19 04:06:05;;;;;;;;;;;;;;;16.76;64.50;99708.66;5069943;28;5824;-77
2023/07/19 04:08:31;;;;;;;;;;;;;;;16.84;64.11;99713.50;5098088;28;4855;-78
2023/07/19 04:10:58;;;;;;;;;;;;;;;16.67;64.61;99710.31;5083471;27;5285;-77
2023/07/19 04:13:25;;;;;;;;;;;;;;;16.75;64.39;99713.25;5068244;28;5002;-78
2023/07/19 04:15:52;;;;;;;;;;;;;;;16.69;64.60;99717.09;5063258;28;5615;-79
2023/07/19 04:18:18;;;;;;;;;;;;;;;16.58;65.05;99721.78;5069817;28;5034;-78
2023/07/19 04:20:45;;;;;;;;;;;;;;;16.66;64.62;99714.13;5062527;28;5030;-78
2023/07/19 04:23:13;;;;;;;;;;;;;;;16.63;65.09;99720.94;5069164;28;5764;-76
2023/07/19 04:25:39;;;;;;;;;;;;;;;16.57;64.97;99724.78;5076356;28;5962;-77
2023/07/19 04:28:06;;;;;;;;;;;;;;;16.65;64.64;99729.66;5071093;28;5153;-76
2023/07/19 04:30:33;;;;;;;;;;;;;;;16.63;64.55;99712.78;5064246;28;5498;-77
2023/07/19 04:33:00;;;;;;;;;;;;;;;16.66;64.56;99716.84;5062609;28;4982;-76
2023/07/19 04:35:51;;;;;;;;;;;;;;;16.44;65.22;99725.38;5064832;28;5006;-77
2023/07/19 04:38:43;;;;;;;;;;;;;;;16.58;64.87;99710.09;5073592;28;6306;-78
2023/07/19 04:41:35;;;;;;;;;;;;;;;16.41;65.35;99709.63;5072292;28;5295;-75
2023/07/19 04:44:28;;;;;;;;;;;;;;;16.53;64.70;99713.66;5072492;28;6054;-77
2023/07/19 04:47:19;;;;;;;;;;;;;;;16.73;64.07;99707.28;5080643;28;4995;-77
2023/07/19 04:50:11;;;;;;;;;;;;;;;16.64;64.37;99713.59;5072248;28;5557;-80
2023/07/19 04:52:39;;;;;;;;;;;;;;;16.60;64.44;99701.66;5106966;27;5206;-77
2023/07/19 04:55:07;;;;;;;;;;;;;;;16.56;64.33;99707.66;5081221;28;5117;-76
2023/07/19 04:57:33;;;;;;;;;;;;;;;16.42;64.82;99714.81;5082014;28;5661;-77
2023/07/19 05:00:00;;;;;;;;;;;;;;;16.44;64.92;99709.91;5082180;28;5185;-74
2023/07/19 05:02:26;;;;;;;;;;;;;;;16.44;64.83;99709.91;5081971;28;5403;-74
2023/07/19 05:04:53;;;;;;;;;;;;;;;16.56;64.34;99701.44;5084530;28;5785;-76
2023/07/19 05:07:19;;;;;;;;;;;;;;;16.48;64.54;99710.16;5081454;28;6481;-75
2023/07/19 05:09:46;;;;;;;;;;;;;;;16.54;64.43;99709.84;5069870;28;6083;-75
2023/07/19 05:12:12;;;;;;;;;;;;;;;16.29;65.06;99708.03;5082774;28;5169;-74
2023/07/19 05:14:39;;;;;;;;;;;;;;;16.66;63.86;99703.25;5061923;28;5768;-76
2023/07/19 05:17:05;;;;;;;;;;;;;;;16.51;64.46;99710.41;5074328;28;5905;-76
2023/07/19 05:19:32;;;;;;;;;;;;;;;16.62;63.85;99713.91;5071961;28;6360;-77
2023/07/19 05:21:59;;;;;;;;;;;;;;;16.52;64.30;99711.22;5076100;28;6088;-74
2023/07/19 05:24:26;;;;;;;;;;;;;;;16.51;64.29;99715.84;5071492;28;5131;-75
2023/07/19 05:26:52;;;;;;;;;;;;;;;16.42;64.51;99714.81;5072415;28;5539;-73
2023/07/19 05:29:19;;;;;;;;;;;;;;;16.60;63.79;99710.63;5079973;28;5030;-76
2023/07/19 05:31:46;;;;;;;;;;;;;;;16.50;64.26;99711.50;5068687;28;5627;-75
2023/07/19 05:34:13;;;;;;;;;;;;;;;16.34;64.70;99713.47;5071415;28;5939;-78
2023/07/19 05:36:39;;;;;;;;;;;;;;;16.56;63.79;99715.81;5078500;28;5741;-77
2023/07/19 05:39:06;;;;;;;;;;;;;;;16.43;64.38;99710.97;5076747;28;5072;-78
2023/07/19 05:41:32;;;;;;;;;;;;;;;16.64;63.74;99711.69;5074658;28;4964;-74
2023/07/19 05:43:59;;;;;;;;;;;;;;;16.58;63.92;99718.25;5067748;28;5058;-80
2023/07/19 05:46:26;;;;;;;;;;;;;;;16.50;64.00;99713.38;5068302;28;5183;-76
2023/07/19 05:48:52;;;;;;;;;;;;;;;16.62;63.57;99705.75;5073624;28;5853;-77
2023/07/19 05:51:20;;;;;;;;;;;;;;;16.63;63.46;99703.81;5074540;28;4897;-77
2023/07/19 05:53:47;;;;;;;;;;;;;;;16.63;63.44;99704.63;5075459;28;5599;-74
2023/07/19 05:56:14;;;;;;;;;;;;;;;16.75;63.12;99699.66;5076367;28;5752;-77
2023/07/19 05:58:41;;;;;;;;;;;;;;;16.70;63.23;99694.25;5075889;28;5141;-76
2023/07/19 06:01:09;;;;;;;;;;;;;;;16.63;63.53;99693.75;5076127;28;5305;-76
2023/07/19 06:03:36;;;;;;;;;;;;;;;16.66;63.16;99695.13;5074945;28;6035;-76
2023/07/19 06:06:05;;;;;;;;;;;;;;;16.68;63.10;99691.03;5109688;27;5019;-77
2023/07/19 06:08:32;;;;;;;;;;;;;;;16.57;63.42;99687.53;5071672;28;5037;-75
2023/07/19 06:10:59;;;;;;;;;;;;;;;16.26;64.58;99686.84;5076692;28;5086;-77
2023/07/19 06:13:25;;;;;;;;;;;;;;;16.43;63.94;99691.16;5074776;28;5059;-76
2023/07/19 06:15:52;;;;;;;;;;;;;;;16.67;63.17;99688.56;5072596;28;5281;-75
2023/07/19 06:18:19;;;;;;;;;;;;;;;16.43;63.87;99691.97;5068013;28;5139;-79
2023/07/19 06:20:47;;;;;;;;;;;;;;;16.65;63.24;99690.75;5056168;28;5114;-77
2023/07/19 06:23:14;;;;;;;;;;;;;;;16.59;63.18;99690.00;5074023;28;5076;-76
2023/07/19 06:25:44;;;;;;;;;;;;;;;16.56;63.17;99696.00;5083493;28;5694;-77
2023/07/19 06:28:11;;;;;;;;;;;;;;;16.58;63.38;99697.31;5054011;28;6546;-77
2023/07/19 06:30:37;;;;;;;;;;;;;;;16.70;62.88;99699.69;5076587;28;5910;-75
2023/07/19 06:33:04;;;;;;;;;;;;;;;16.92;62.18;99701.25;5076338;28;5265;-75
2023/07/19 06:35:30;;;;;;;;;;;;;;;16.84;62.23;99699.13;5055901;28;5385;-75
2023/07/19 06:37:57;;;;;;;;;;;;;;;16.70;62.56;99704.31;5076307;28;5009;-76
2023/07/19 06:40:23;;;;;;;;;;;;;;;16.86;62.36;99711.34;5074643;28;6106;-75
2023/07/19 06:42:50;;;;;;;;;;;;;;;16.93;61.85;99711.81;5074231;28;5129;-78
2023/07/19 06:45:17;;;;;;;;;;;;;;;16.83;62.17;99702.94;5074418;28;6329;-78
2023/07/19 06:47:43;;;;;;;;;;;;;;;16.98;61.94;99700.09;5058888;28;5837;-77
2023/07/19 06:50:10;;;;;;;;;;;;;;;16.79;62.24;99708.09;5073391;28;6478;-76
2023/07/19 06:52:36;;;;;;;;;;;;;;;16.88;62.04;99713.75;5074867;28;6247;-78
2023/07/19 06:55:03;;;;;;;;;;;;;;;16.65;62.76;99707.91;5054320;28;5233;-76
2023/07/19 06:57:30;;;;;;;;;;;;;;;16.83;62.18;99711.91;5076123;28;5967;-77
2023/07/19 06:59:57;;;;;;;;;;;;;;;16.70;62.56;99713.28;5074914;28;5242;-75
2023/07/19 07:02:23;;;;;;;;;;;;;;;16.67;62.59;99716.56;5082624;28;5273;-75
2023/07/19 07:04:50;;;;;;;;;;;;;;;16.67;62.49;99711.13;5074390;28;5238;-76
2023/07/19 07:07:18;;;;;;;;;;;;;;;16.52;63.02;99709.31;5074635;28;5286;-78
2023/07/19 07:09:45;;;;;;;;;;;;;;;16.77;62.28;99713.84;5075262;28;5317;-75
2023/07/19 07:12:11;;;;;;;;;;;;;;;16.69;62.66;99705.41;5074366;28;5238;-77
2023/07/19 07:14:38;;;;;;;;;;;;;;;16.41;63.25;99707.72;5055508;28;6309;-77
2023/07/19 07:17:09;;;;;;;;;;;;;;;16.27;63.74;99704.81;5069217;28;5792;-77
2023/07/19 07:19:36;;;;;;;;;;;;;;;16.54;63.05;99707.13;5063156;28;5076;-78
2023/07/19 07:22:06;;;;;;;;;;;;;;;16.48;62.96;99705.53;5059757;28;5977;-77
2023/07/19 07:24:34;;;;;;;;;;;;;;;16.52;62.83;99709.31;5072891;28;5476;-76
2023/07/19 07:27:03;;;;;;;;;;;;;;;16.42;63.05;99709.38;5067461;28;6038;-77
2023/07/19 07:29:29;;;;;;;;;;;;;;;16.24;63.83;99708.09;5064929;28;5601;-78
2023/07/19 07:31:58;;;;;;;;;;;;;;;16.29;63.64;99708.03;5041934;28;5079;-76
2023/07/19 07:34:28;;;;;;;;;;;;;;;16.37;63.61;99711.28;5067066;28;5016;-77
2023/07/19 07:36:55;;;;;;;;;;;;;;;16.27;63.62;99704.00;5040068;28;6427;-78
2023/07/19 07:39:21;;;;;;;;;;;;;;;16.35;63.46;99711.56;5061769;28;5772;-75
2023/07/19 07:41:48;;;;;;;;;;;;;;;16.31;63.63;99710.50;5063924;28;5342;-77
2023/07/19 07:44:15;;;;;;;;;;;;;;;16.24;64.05;99704.56;5061874;28;6013;-76
2023/07/19 07:46:41;;;;;;;;;;;;;;;16.29;63.75;99712.66;5073690;28;5260;-78
2023/07/19 07:49:08;;;;;;;;;;;;;;;16.61;62.69;99708.72;5072586;28;5199;-79
2023/07/19 07:51:35;;;;;;;;;;;;;;;16.21;63.87;99702.41;5076985;28;5048;-77
2023/07/19 07:54:01;;;;;;;;;;;;;;;16.05;64.58;99702.44;5071491;28;5177;-76
2023/07/19 07:56:28;;;;;;;;;;;;;;;16.16;63.95;99703.22;5076527;28;5298;-73
2023/07/19 07:58:56;;;;;;;;;;;;;;;16.13;64.23;99703.78;5072299;28;5032;-78
2023/07/19 08:01:23;;;;;;;;;;;;;;;16.06;64.37;99706.78;5060389;28;5868;-76
2023/07/19 08:03:49;;;;;;;;;;;;;;;16.05;64.67;99705.13;5074454;28;5367;-78
2023/07/19 08:06:16;;;;;;;;;;;;;;;16.00;64.55;99705.19;5073867;28;6054;-77
2023/07/19 08:08:42;;;;;;;;;;;;;;;16.02;64.57;99702.97;5073043;28;5982;-76
2023/07/19 08:11:10;;;;;;;;;;;;;;;16.02;64.49;99708.41;5069547;28;5390;-80
2023/07/19 08:13:36;;;;;;;;;;;;;;;15.98;64.84;99699.19;5075479;28;6381;-77
2023/07/19 08:16:06;;;;;;;;;;;;;;;16.00;64.84;99704.34;5071607;28;5496;-75
2023/07/19 08:18:32;;;;;;;;;;;;;;;16.01;64.79;99703.28;5075677;28;5221;-75
2023/07/19 08:20:59;;;;;;;;;;;;;;;16.02;64.90;99704.88;5073007;28;5181;-77
2023/07/19 08:23:25;;;;;;;;;;;;;;;16.12;64.51;99699.44;5074485;28;6180;-77
2023/07/19 08:25:52;;;;;;;;;;;;;;;15.99;64.78;99698.09;5074486;28;5214;-78
2023/07/19 08:28:18;;;;;;;;;;;;;;;16.05;64.48;99688.84;5072796;28;5716;-78
2023/07/19 08:30:45;;;;;;;;;;;;;;;16.04;64.70;99689.94;5074324;28;5137;-76
2023/07/19 08:33:12;;;;;;;;;;;;;;;16.00;64.58;99691.59;5075357;28;5143;-74
2023/07/19 08:35:38;;;;;;;;;;;;;;;15.99;64.83;99681.00;5071633;28;5098;-79
2023/07/19 08:38:05;;;;;;;;;;;;;;;16.14;64.38;99689.09;5055507;28;5248;-74
2023/07/19 08:40:31;;;;;;;;;;;;;;;16.12;64.39;99691.28;5060319;28;4922;-77
2023/07/19 08:42:58;;;;;;;;;;;;;;;16.26;63.98;99688.78;5062101;28;4761;-77
2023/07/19 08:45:24;;;;;;;;;;;;;;;16.19;64.22;99680.13;5060491;28;6017;-77
2023/07/19 08:47:51;;;;;;;;;;;;;;;16.08;64.46;99682.06;5073057;28;5667;-76
2023/07/19 08:50:18;;;;;;;;;;;;;;;16.11;64.38;99676.06;5063516;28;5321;-77
2023/07/19 08:52:44;;;;;;;;;;;;;;;16.13;64.39;99685.56;5060460;28;5288;-80
2023/07/19 08:55:11;;;;;;;;;;;;;;;16.18;64.14;99681.19;5060573;28;5688;-75
2023/07/19 08:57:46;;;;;;;;;;;;;;;16.05;64.68;99675.25;5043789;28;5083;-78
2023/07/19 09:00:13;;;;;;;;;;;;;;;16.02;64.75;99672.28;5060682;28;5015;-75
2023/07/19 09:02:39;;;;;;;;;;;;;;;15.99;64.60;99679.09;5061205;28;4940;-78
2023/07/19 09:05:06;;;;;;;;;;;;;;;16.07;64.28;99666.84;5072135;28;2438;-78
2023/07/19 09:07:33;;;;;;;;;;;;;;;16.01;64.33;99665.25;5063089;28;4646;-75
2023/07/19 09:09:59;;;;;;;;;;;;;;;15.98;64.69;99663.91;5059347;28;4961;-79
2023/07/19 09:12:26;;;;;;;;;;;;;;;15.94;64.81;99667.44;5030530;28;5453;-77
2023/07/19 09:14:53;;;;;;;;;;;;;;;15.98;64.59;99665.81;5042516;28;6296;-74
2023/07/19 09:17:19;;;;;;;;;;;;;;;16.02;64.66;99670.38;5038511;28;5912;-74
2023/07/19 09:19:47;;;;;;;;;;;;;;;16.01;64.70;99673.41;5045217;28;4952;-75
2023/07/19 09:22:14;;;;;;;;;;;;;;;15.98;64.82;99669.31;5033676;28;5180;-76
2023/07/19 09:24:40;;;;;;;;;;;;;;;15.99;65.20;99662.78;5053920;28;5165;-76
2023/07/19 09:27:07;;;;;;;;;;;;;;;16.00;65.03;99661.72;5051367;28;6190;-76
2023/07/19 09:29:34;;;;;;;;;;;;;;;15.99;65.22;99667.41;5054535;28;5251;-76
2023/07/19 09:32:01;;;;;;;;;;;;;;;15.97;65.33;99664.16;5038237;28;6221;-75
2023/07/19 09:34:28;;;;;;;;;;;;;;;15.99;65.29;99665.50;5056379;28;6195;-75
2023/07/19 09:36:54;;;;;;;;;;;;;;;16.03;65.07;99663.06;5057810;28;5312;-76
2023/07/19 09:39:21;;;;;;;;;;;;;;;16.00;65.19;99659.00;5055304;28;5935;-76
2023/07/19 09:41:47;;;;;;;;;;;;;;;15.99;65.32;99662.00;5050442;28;5048;-77
2023/07/19 09:44:15;;;;;;;;;;;;;;;16.02;65.10;99659.53;5054130;28;5904;-78
2023/07/19 09:46:42;;;;;;;;;;;;;;;16.01;64.79;99655.19;5057716;28;4919;-77
2023/07/19 09:49:08;;;;;;;;;;;;;;;15.99;64.95;99649.22;5041414;28;5159;-76
2023/07/19 09:51:35;;;;;;;;;;;;;;;15.99;64.93;99656.56;5047795;28;5179;-76
2023/07/19 09:54:01;;;;;;;;;;;;;;;15.99;65.33;99657.38;5042379;28;4969;-76
2023/07/19 09:56:28;;;;;;;;;;;;;;;16.00;65.31;99652.75;5055075;28;6049;-76
2023/07/19 09:58:55;;;;;;;;;;;;;;;15.99;65.42;99651.94;5055085;28;4954;-78
2023/07/19 10:01:22;;;;;;;;;;;;;;;16.01;65.13;99652.47;5055319;28;5663;-75
2023/07/19 10:03:48;;;;;;;;;;;;;;;16.02;65.34;99647.84;5055894;28;5160;-78
2023/07/19 10:06:15;;;;;;;;;;;;;;;16.01;65.39;99649.75;5054617;28;5949;-77
2023/07/19 10:08:42;;;;;;;;;;;;;;;16.00;64.86;99645.44;5055200;28;5441;-76
2023/07/19 10:11:08;;;;;;;;;;;;;;;16.02;64.84;99645.94;5054278;28;5061;-74
2023/07/19 10:13:35;;;;;;;;;;;;;;;16.03;65.04;99644.88;5047769;28;5075;-75
2023/07/19 10:16:01;;;;;;;;;;;;;;;16.03;65.12;99644.88;5031630;28;5995;-77
2023/07/19 10:18:29;;;;;;;;;;;;;;;16.03;64.94;99650.31;5046511;28;5087;-75
2023/07/19 10:20:55;;;;;;;;;;;;;;;16.02;64.70;99640.50;5028578;28;5925;-76
2023/07/19 10:23:22;;;;;;;;;;;;;;;16.06;64.90;99647.03;5047488;28;5910;-75
2023/07/19 10:25:49;;;;;;;;;;;;;;;16.07;64.60;99639.69;5048693;28;5522;-76
2023/07/19 10:28:15;;;;;;;;;;;;;;;16.07;64.72;99640.50;5033226;28;5436;-77
2023/07/19 10:30:41;;;;;;;;;;;;;;;16.11;64.88;99632.59;5046386;28;5201;-75
2023/07/19 10:33:07;;;;;;;;;;;;;;;16.09;65.00;99626.66;5047165;28;5768;-75
2023/07/19 10:35:34;;;;;;;;;;;;;;;16.10;65.09;99620.13;5061159;28;5117;-77
2023/07/19 10:38:00;;;;;;;;;;;;;;;16.08;64.51;99623.09;5041730;28;5111;-75
2023/07/19 10:40:27;;;;;;;;;;;;;;;16.08;64.73;99622.31;5043965;28;4638;-77
2023/07/19 10:42:53;;;;;;;;;;;;;;;16.11;64.76;99619.03;5046177;28;5249;-74
2023/07/19 10:45:20;;;;;;;;;;;;;;;16.11;64.77;99624.47;5044902;28;5728;-76
2023/07/19 10:47:46;;;;;;;;;;;;;;;16.15;64.99;99614.69;5044938;28;5293;-75
2023/07/19 10:50:13;;;;;;;;;;;;;;;16.16;65.07;99604.63;5027799;28;4910;-76
2023/07/19 10:52:40;;;;;;;;;;;;;;;16.17;65.29;99614.38;5045265;28;4722;-78
2023/07/19 10:55:06;;;;;;;;;;;;;;;16.17;65.06;99608.94;5049244;28;4973;-77
2023/07/19 10:57:33;;;;;;;;;;;;;;;16.17;64.88;99611.66;5024055;28;5537;-74
2023/07/19 11:00:00;;;;;;;;;;;;;;;16.14;64.45;99610.31;5044765;28;5734;-77
2023/07/19 11:02:26;;;;;;;;;;;;;;;16.17;64.39;99611.66;5045859;28;5094;-76
2023/07/19 11:04:53;;;;;;;;;;;;;;;16.19;64.81;99604.06;5025778;28;5731;-76
2023/07/19 11:07:19;;;;;;;;;;;;;;;16.18;64.73;99611.41;5045621;28;4968;-77
2023/07/19 11:09:46;;;;;;;;;;;;;;;16.20;64.63;99605.66;5045198;28;5900;-76
2023/07/19 11:12:12;;;;;;;;;;;;;;;16.21;64.76;99612.75;5071345;28;5660;-75
2023/07/19 11:14:41;;;;;;;;;;;;;;;16.22;64.85;99619.78;5066461;28;5584;-75
2023/07/19 11:17:07;;;;;;;;;;;;;;;16.23;64.78;99613.25;5065950;28;5502;-74
2023/07/19 11:19:34;;;;;;;;;;;;;;;16.24;64.76;99612.19;5062886;28;5747;-75
2023/07/19 11:22:00;;;;;;;;;;;;;;;16.26;64.79;99623.56;5067569;28;5349;-76
2023/07/19 11:24:27;;;;;;;;;;;;;;;16.25;64.71;99611.09;5064932;28;5983;-75
2023/07/19 11:26:54;;;;;;;;;;;;;;;16.26;64.34;99615.41;5063529;28;5769;-76
2023/07/19 11:29:20;;;;;;;;;;;;;;;16.24;63.95;99606.75;5071285;28;5840;-74
2023/07/19 11:31:47;;;;;;;;;;;;;;;16.24;63.89;99613.00;5076673;28;5097;-77
2023/07/19 11:34:13;;;;;;;;;;;;;;;16.23;63.31;99613.25;5077108;28;5036;-79
2023/07/19 11:36:40;;;;;;;;;;;;;;;16.25;63.91;99603.75;5070394;28;6232;-75
2023/07/19 11:39:06;;;;;;;;;;;;;;;16.26;nan;99601.84;5073927;28;5018;-77
2023/07/19 11:41:33;;;;;;;;;;;;;;;16.29;64.31;99598.56;5061691;28;5794;-78
2023/07/19 11:44:00;;;;;;;;;;;;;;;16.28;63.74;99602.38;5068168;28;4983;-77
2023/07/19 11:46:26;;;;;;;;;;;;;;;16.27;63.73;99596.13;5067491;28;5127;-76
2023/07/19 11:48:53;;;;;;;;;;;;;;;16.28;64.03;99600.47;5044457;28;4940;-78
2023/07/19 11:51:20;;;;;;;;;;;;;;;16.30;63.90;99592.06;5039312;28;5701;-77
2023/07/19 11:53:47;;;;;;;;;;;;;;;16.31;64.03;99588.22;5062369;28;5632;-78
2023/07/19 11:56:14;;;;;;;;;;;;;;;16.33;64.07;99591.47;5062106;28;6048;-76
2023/07/19 11:58:40;;;;;;;;;;;;;;;16.34;64.28;99582.22;5058726;28;5453;-77
2023/07/19 12:01:07;;;;;;;;;;;;;;;16.34;64.25;99585.75;5071396;28;5929;-77
2023/07/19 12:03:33;;;;;;;;;;;;;;;16.35;64.26;99579.25;5067311;28;5192;-76
2023/07/19 12:06:00;;;;;;;;;;;;;;;16.35;64.09;99578.41;5051077;28;6378;-78
2023/07/19 12:08:27;;;;;;;;;;;;;;;16.37;64.38;99581.66;5068576;28;5896;-78
2023/07/19 12:10:53;;;;;;;;;;;;;;;16.42;64.05;99581.66;5071641;28;5223;-77
2023/07/19 12:13:22;;;;;;;;;;;;;;;16.39;64.10;99579.50;5048546;28;6102;-77
2023/07/19 12:15:49;;;;;;;;;;;;;;;16.40;64.46;99577.59;5046731;28;5917;-78
2023/07/19 12:18:16;;;;;;;;;;;;;;;16.39;64.00;99592.28;5047339;28;6485;-77
2023/07/19 12:20:43;;;;;;;;;;;;;;;16.37;63.70;99597.97;5052664;28;5085;-77
2023/07/19 12:23:10;;;;;;;;;;;;;;;16.39;64.04;99595.78;5045899;28;5657;-77
2023/07/19 12:25:37;;;;;;;;;;;;;;;16.43;64.30;99594.13;5039173;28;6118;-76
2023/07/19 12:28:03;;;;;;;;;;;;;;;16.43;64.02;99594.13;5041710;28;5742;-76
2023/07/19 12:30:30;;;;;;;;;;;;;;;16.44;64.22;99600.38;5035169;28;5595;-77
2023/07/19 12:32:57;;;;;;;;;;;;;;;16.45;64.15;99602.81;5031977;28;5056;-76
2023/07/19 12:35:23;;;;;;;;;;;;;;;16.45;64.28;99583.00;5038468;28;6206;-77
2023/07/19 12:37:50;;;;;;;;;;;;;;;16.45;64.38;99586.50;5034539;28;5197;-76
2023/07/19 12:40:16;;;;;;;;;;;;;;;16.46;64.53;99582.69;5056695;28;5166;-77
2023/07/19 12:42:49;;;;;;;;;;;;;;;16.46;64.70;99579.97;5067868;28;5184;-76
2023/07/19 12:45:16;;;;;;;;;;;;;;;16.46;64.62;99577.25;5038295;28;4944;-77
2023/07/19 12:47:42;;;;;;;;;;;;;;;16.48;64.58;99577.00;5037551;28;5295;-76
2023/07/19 12:50:09;;;;;;;;;;;;;;;16.47;64.68;99570.75;5037643;28;5104;-77
2023/07/19 12:52:35;;;;;;;;;;;;;;;16.47;64.79;99561.75;5037270;28;5938;-78
2023/07/19 12:55:02;;;;;;;;;;;;;;;16.50;64.81;99564.75;5054880;28;5576;-77
2023/07/19 12:57:29;;;;;;;;;;;;;;;16.52;64.65;99564.44;5040276;28;5599;-80
2023/07/19 12:59:55;;;;;;;;;;;;;;;16.47;63.79;99567.19;5038744;28;5297;-78